Terminal Aerodrome Forecast
Issued by NWS

Home | Current Version | Previous Version | Graphics & Text | Print | Product List | Glossary On
Versions: 1 2 3 4 5 6 7 8 9 10 11 12 13 14 15
988
FTUS41 KCLE 261123
TAFFDY
TAF
KFDY 261123Z 2612/2712 22008KT P6SM FEW028 BKN250
      TEMPO 2612/2614 BKN028
     FM262100 20008KT P6SM VCSH SCT050 BKN100
     FM270100 18004KT P6SM SCT050
     FM270800 VRB03KT 4SM BR BKN250=

USA.gov is the U.S. government's official web portal to all federal, state and local government web resources and services.